Time;durP1;ratioP1;P1;durP2;ratioP2;P2;SDS_P1;SDS_P2;PMS_P1;PMS_P2;Temp;Humidity;BMP_temperature;BMP_pressure;BME280_temperature;BME280_humidity;BME280_pressure;Samples;Min_cycle;Max_cycle;Signal;HPM_P1;HPM_P2
2021/04/28 00:00:12;;;;;;;7.22;4.78;;;;;;;;;;5053606;28;20198;-67
2021/04/28 00:02:39;;;;;;;4.53;4.18;;;;;;;;;;5053931;28;20192;-67
2021/04/28 00:05:06;;;;;;;5.45;4.70;;;;;;;;;;5053625;28;20506;-67
2021/04/28 00:07:33;;;;;;;12.90;5.13;;;;;;;;;;5053532;28;20211;-67
2021/04/28 00:10:01;;;;;;;6.88;5.90;;;;;;;;;;5053999;28;20197;-67
2021/04/28 00:12:27;;;;;;;6.85;5.30;;;;;;;;;;5053503;28;20207;-68
2021/04/28 00:14:54;;;;;;;5.15;4.60;;;;;;;;;;5053142;28;20195;-68
2021/04/28 00:17:21;;;;;;;6.85;4.70;;;;;;;;;;5052926;28;20211;-67
2021/04/28 00:19:48;;;;;;;5.75;4.53;;;;;;;;;;5053513;28;20536;-68
2021/04/28 00:22:14;;;;;;;5.50;4.70;;;;;;;;;;5053261;28;20199;-67
2021/04/28 00:24:41;;;;;;;5.18;4.63;;;;;;;;;;5053274;28;20681;-68
2021/04/28 00:27:09;;;;;;;13.45;5.25;;;;;;;;;;5052902;28;20653;-67
2021/04/28 00:29:36;;;;;;;5.43;4.38;;;;;;;;;;5052991;28;20330;-68
2021/04/28 00:32:02;;;;;;;6.07;5.10;;;;;;;;;;5053193;28;20196;-67
2021/04/28 00:34:29;;;;;;;6.57;4.45;;;;;;;;;;5052818;28;20195;-67
2021/04/28 00:36:56;;;;;;;7.15;5.20;;;;;;;;;;5052700;28;20219;-67
2021/04/28 00:39:22;;;;;;;5.78;4.72;;;;;;;;;;5053588;28;20536;-67
2021/04/28 00:41:49;;;;;;;5.75;4.45;;;;;;;;;;5053440;28;20272;-67
2021/04/28 00:44:17;;;;;;;5.47;4.97;;;;;;;;;;5053025;28;20252;-67
2021/04/28 00:46:44;;;;;;;5.75;4.55;;;;;;;;;;5053198;28;20385;-67
2021/04/28 00:49:11;;;;;;;7.10;4.50;;;;;;;;;;5052700;28;20257;-67
2021/04/28 00:51:37;;;;;;;6.43;5.20;;;;;;;;;;5053437;28;20192;-67
2021/04/28 00:54:04;;;;;;;6.45;4.60;;;;;;;;;;5057048;28;20206;-67
2021/04/28 00:56:31;;;;;;;5.50;4.75;;;;;;;;;;5056512;28;20219;-67
2021/04/28 00:58:58;;;;;;;5.25;4.60;;;;;;;;;;5057065;28;20202;-67
2021/04/28 01:01:25;;;;;;;5.70;5.00;;;;;;;;;;5057109;28;20370;-67
2021/04/28 01:03:52;;;;;;;6.95;4.72;;;;;;;;;;5057205;28;20198;-67
2021/04/28 01:06:19;;;;;;;5.50;4.75;;;;;;;;;;5056681;28;20197;-67
2021/04/28 01:08:46;;;;;;;7.78;4.53;;;;;;;;;;5056608;28;20225;-67
2021/04/28 01:11:12;;;;;;;7.10;5.10;;;;;;;;;;5056280;28;20207;-67
2021/04/28 01:13:39;;;;;;;6.13;4.50;;;;;;;;;;5056608;28;20198;-67
2021/04/28 01:16:06;;;;;;;12.02;5.05;;;;;;;;;;5056131;28;20252;-67
2021/04/28 01:18:34;;;;;;;6.25;4.60;;;;;;;;;;5056136;28;20195;-68
2021/04/28 01:21:01;;;;;;;5.40;4.90;;;;;;;;;;5056036;28;20197;-68
2021/04/28 01:23:28;;;;;;;6.72;5.20;;;;;;;;;;5056061;28;20282;-67
2021/04/28 01:25:55;;;;;;;6.53;5.40;;;;;;;;;;5056699;28;20234;-68
2021/04/28 01:28:23;;;;;;;4.90;4.40;;;;;;;;;;5056262;28;20200;-67
2021/04/28 01:30:52;;;;;;;11.25;5.10;;;;;;;;;;5056325;28;20212;-68
2021/04/28 01:33:20;;;;;;;5.75;4.75;;;;;;;;;;5055974;28;20228;-68
2021/04/28 01:35:48;;;;;;;5.97;5.30;;;;;;;;;;5056518;28;20348;-67
2021/04/28 01:38:15;;;;;;;7.53;4.60;;;;;;;;;;5055721;28;20198;-68
2021/04/28 01:40:42;;;;;;;11.73;5.50;;;;;;;;;;5055595;28;20209;-67
2021/04/28 01:43:10;;;;;;;6.97;6.28;;;;;;;;;;5055819;28;20205;-67
2021/04/28 01:45:36;;;;;;;4.80;4.40;;;;;;;;;;5055908;28;20286;-68
2021/04/28 01:48:05;;;;;;;5.25;4.75;;;;;;;;;;5056142;28;20197;-68
2021/04/28 01:50:31;;;;;;;8.40;4.88;;;;;;;;;;5055745;28;20229;-68
2021/04/28 01:52:58;;;;;;;6.13;4.90;;;;;;;;;;5055878;28;20200;-68
2021/04/28 01:55:25;;;;;;;11.48;6.18;;;;;;;;;;5055525;28;20219;-68
2021/04/28 01:57:53;;;;;;;5.60;4.50;;;;;;;;;;5055391;28;20237;-68
2021/04/28 02:00:21;;;;;;;4.93;4.47;;;;;;;;;;5055774;28;20206;-68
2021/04/28 02:02:49;;;;;;;8.23;4.78;;;;;;;;;;5055245;28;20621;-68
2021/04/28 02:05:17;;;;;;;5.85;4.82;;;;;;;;;;5055325;28;20206;-68
2021/04/28 02:07:44;;;;;;;6.88;5.05;;;;;;;;;;5055710;28;20207;-69
2021/04/28 02:10:12;;;;;;;5.28;4.78;;;;;;;;;;5055243;28;20207;-67
2021/04/28 02:12:39;;;;;;;5.18;4.55;;;;;;;;;;5055485;28;20719;-68
2021/04/28 02:15:11;;;;;;;5.85;3.92;;;;;;;;;;5055173;28;20200;-67
2021/04/28 02:17:38;;;;;;;5.30;4.80;;;;;;;;;;5055552;28;20233;-68
2021/04/28 02:20:06;;;;;;;5.97;4.50;;;;;;;;;;5055368;28;20199;-67
2021/04/28 02:22:33;;;;;;;7.20;5.38;;;;;;;;;;5055900;28;20199;-67
2021/04/28 02:25:00;;;;;;;6.15;4.72;;;;;;;;;;5055282;28;20202;-67
2021/04/28 02:27:26;;;;;;;7.90;4.40;;;;;;;;;;5054916;28;20661;-67
2021/04/28 02:29:55;;;;;;;5.38;4.25;;;;;;;;;;5056324;28;20260;-68
2021/04/28 02:32:22;;;;;;;5.55;4.60;;;;;;;;;;5058170;28;20256;-68
2021/04/28 02:34:49;;;;;;;5.35;4.90;;;;;;;;;;5057277;28;20195;-68
2021/04/28 02:37:19;;;;;;;6.00;4.80;;;;;;;;;;5055862;28;20305;-67
2021/04/28 02:39:47;;;;;;;6.72;4.93;;;;;;;;;;5055099;28;20194;-68
2021/04/28 02:42:14;;;;;;;6.53;4.72;;;;;;;;;;5055244;28;20637;-67
2021/04/28 02:44:41;;;;;;;7.07;4.78;;;;;;;;;;5055372;28;20190;-68
2021/04/28 02:47:08;;;;;;;5.30;4.80;;;;;;;;;;5054955;28;20208;-67
2021/04/28 02:49:39;;;;;;;5.80;4.90;;;;;;;;;;5054602;28;20233;-68
2021/04/28 02:52:06;;;;;;;5.35;4.80;;;;;;;;;;5054774;28;20191;-67
2021/04/28 02:54:33;;;;;;;5.95;5.00;;;;;;;;;;5054356;28;20196;-67
2021/04/28 02:57:00;;;;;;;8.30;5.40;;;;;;;;;;5054188;28;20211;-67
2021/04/28 02:59:26;;;;;;;5.22;4.72;;;;;;;;;;5054606;28;20553;-67
2021/04/28 03:01:54;;;;;;;5.57;4.65;;;;;;;;;;5054530;28;20199;-67
2021/04/28 03:04:20;;;;;;;6.63;5.20;;;;;;;;;;5054536;28;20585;-67
2021/04/28 03:06:48;;;;;;;6.07;5.18;;;;;;;;;;5054983;28;20196;-67
2021/04/28 03:09:15;;;;;;;7.75;5.28;;;;;;;;;;5054425;28;20234;-67
2021/04/28 03:11:43;;;;;;;6.32;5.10;;;;;;;;;;5053978;28;20282;-68
2021/04/28 03:14:10;;;;;;;5.60;4.88;;;;;;;;;;5053366;28;20683;-67
2021/04/28 03:16:37;;;;;;;7.85;4.68;;;;;;;;;;5053702;28;20210;-68
2021/04/28 03:19:04;;;;;;;5.82;4.78;;;;;;;;;;5054235;28;20279;-67
2021/04/28 03:21:33;;;;;;;6.60;5.22;;;;;;;;;;5054422;28;20194;-67
2021/04/28 03:24:01;;;;;;;6.55;5.38;;;;;;;;;;5054532;28;20198;-67
2021/04/28 03:26:28;;;;;;;6.93;5.30;;;;;;;;;;5053862;28;20739;-66
2021/04/28 03:28:55;;;;;;;9.25;5.25;;;;;;;;;;5054097;28;20206;-66
2021/04/28 03:31:21;;;;;;;7.97;4.78;;;;;;;;;;5053971;28;20199;-67
2021/04/28 03:33:48;;;;;;;5.18;4.65;;;;;;;;;;5053695;28;20195;-66
2021/04/28 03:36:15;;;;;;;6.10;5.50;;;;;;;;;;5054009;28;20665;-66
2021/04/28 03:38:41;;;;;;;6.32;5.00;;;;;;;;;;5053612;28;20666;-66
2021/04/28 03:41:09;;;;;;;10.02;5.68;;;;;;;;;;5053764;28;20203;-67
2021/04/28 03:43:36;;;;;;;8.55;5.75;;;;;;;;;;5053330;28;20660;-66
2021/04/28 03:46:02;;;;;;;7.20;5.38;;;;;;;;;;5054343;28;20234;-66
2021/04/28 03:48:29;;;;;;;7.05;4.65;;;;;;;;;;5053228;28;20627;-66
2021/04/28 03:50:56;;;;;;;5.85;4.90;;;;;;;;;;5054483;28;20187;-66
2021/04/28 03:53:22;;;;;;;6.47;5.50;;;;;;;;;;5053329;28;20657;-66
2021/04/28 03:55:49;;;;;;;7.50;4.80;;;;;;;;;;5053451;28;20199;-66
2021/04/28 03:58:17;;;;;;;8.88;4.78;;;;;;;;;;5053478;28;20199;-66
2021/04/28 04:00:43;;;;;;;9.25;5.00;;;;;;;;;;5053096;28;20233;-66
2021/04/28 04:03:10;;;;;;;7.68;5.47;;;;;;;;;;5053480;28;20548;-66
2021/04/28 04:05:37;;;;;;;5.20;4.70;;;;;;;;;;5053210;28;20190;-66
2021/04/28 04:08:03;;;;;;;6.50;5.85;;;;;;;;;;5053103;28;20205;-66
2021/04/28 04:10:31;;;;;;;6.20;5.32;;;;;;;;;;5053228;28;20199;-66
2021/04/28 04:12:57;;;;;;;6.32;5.30;;;;;;;;;;5053268;28;20199;-65
2021/04/28 04:15:25;;;;;;;7.22;5.05;;;;;;;;;;5053235;28;20298;-65
2021/04/28 04:17:52;;;;;;;6.00;4.97;;;;;;;;;;5053847;28;20591;-66
2021/04/28 04:20:19;;;;;;;4.93;4.45;;;;;;;;;;5053459;28;20191;-65
2021/04/28 04:22:45;;;;;;;6.20;4.70;;;;;;;;;;5052835;28;20199;-65
2021/04/28 04:25:12;;;;;;;6.07;4.43;;;;;;;;;;5052753;28;20653;-65
2021/04/28 04:27:40;;;;;;;11.77;5.35;;;;;;;;;;5053298;28;20252;-65
2021/04/28 04:30:07;;;;;;;6.78;5.28;;;;;;;;;;5053515;28;20194;-65
2021/04/28 04:32:36;;;;;;;5.32;4.82;;;;;;;;;;5052978;28;20206;-66
2021/04/28 04:35:03;;;;;;;4.90;4.45;;;;;;;;;;5053002;28;20195;-66
2021/04/28 04:37:29;;;;;;;6.80;5.60;;;;;;;;;;5052871;28;20635;-66
2021/04/28 04:39:56;;;;;;;7.00;5.40;;;;;;;;;;5052924;28;20192;-66
2021/04/28 04:42:23;;;;;;;7.97;5.53;;;;;;;;;;5052929;28;20198;-65
2021/04/28 04:44:50;;;;;;;6.65;4.63;;;;;;;;;;5052994;28;20199;-67
2021/04/28 04:47:16;;;;;;;8.30;5.13;;;;;;;;;;5053130;28;20305;-66
2021/04/28 04:49:44;;;;;;;8.00;5.55;;;;;;;;;;5052344;28;20227;-66
2021/04/28 04:52:11;;;;;;;7.65;5.35;;;;;;;;;;5052821;28;20191;-65
2021/04/28 04:54:37;;;;;;;6.68;5.13;;;;;;;;;;5053165;28;20659;-65
2021/04/28 04:57:04;;;;;;;5.93;4.97;;;;;;;;;;5055654;28;20223;-65
2021/04/28 04:59:31;;;;;;;6.35;5.47;;;;;;;;;;5070591;28;20198;-65
2021/04/28 05:01:58;;;;;;;11.68;5.18;;;;;;;;;;5071981;28;20194;-65
2021/04/28 05:04:24;;;;;;;10.80;5.20;;;;;;;;;;5072281;28;20198;-65
2021/04/28 05:06:54;;;;;;;5.80;4.80;;;;;;;;;;5071932;28;20286;-65
2021/04/28 05:09:21;;;;;;;7.28;5.70;;;;;;;;;;5072401;28;20665;-65
2021/04/28 05:11:48;;;;;;;8.02;5.88;;;;;;;;;;5071924;28;20221;-66
2021/04/28 05:14:14;;;;;;;8.73;5.07;;;;;;;;;;5072454;28;20644;-65
2021/04/28 05:16:41;;;;;;;7.30;5.72;;;;;;;;;;5072671;28;20218;-65
2021/04/28 05:19:08;;;;;;;10.02;5.60;;;;;;;;;;5072652;28;20286;-65
2021/04/28 05:21:35;;;;;;;9.25;5.95;;;;;;;;;;5073315;28;20220;-66
2021/04/28 05:24:02;;;;;;;7.57;5.40;;;;;;;;;;5072253;28;20665;-65
2021/04/28 05:26:29;;;;;;;8.30;5.68;;;;;;;;;;5071779;28;20229;-66
2021/04/28 05:28:56;;;;;;;10.93;4.80;;;;;;;;;;5072338;28;20281;-66
2021/04/28 05:31:23;;;;;;;6.60;5.10;;;;;;;;;;5072464;28;20224;-65
2021/04/28 05:33:49;;;;;;;8.30;5.05;;;;;;;;;;5071964;28;20290;-65
2021/04/28 05:36:16;;;;;;;8.98;6.28;;;;;;;;;;5071907;28;20285;-65
2021/04/28 05:38:43;;;;;;;7.88;5.63;;;;;;;;;;5074490;28;20243;-65
2021/04/28 05:41:11;;;;;;;8.45;6.15;;;;;;;;;;5075680;28;20698;-66
2021/04/28 05:43:38;;;;;;;7.65;5.93;;;;;;;;;;5075998;28;20294;-65
2021/04/28 05:46:05;;;;;;;8.35;5.97;;;;;;;;;;5075598;28;20190;-67
2021/04/28 05:48:33;;;;;;;6.00;5.40;;;;;;;;;;5075602;28;20294;-66
2021/04/28 05:51:01;;;;;;;8.63;5.70;;;;;;;;;;5075928;28;20187;-65
2021/04/28 05:53:28;;;;;;;6.22;5.63;;;;;;;;;;5075661;28;20195;-65
2021/04/28 05:55:55;;;;;;;16.38;5.60;;;;;;;;;;5075264;28;20194;-66
2021/04/28 05:58:22;;;;;;;16.05;9.25;;;;;;;;;;5075870;28;20226;-67
2021/04/28 06:00:49;;;;;;;11.27;6.75;;;;;;;;;;5075399;28;20196;-66
2021/04/28 06:03:16;;;;;;;9.05;5.78;;;;;;;;;;5075808;28;20229;-66
2021/04/28 06:05:42;;;;;;;7.88;5.55;;;;;;;;;;5075619;28;20294;-66
2021/04/28 06:08:11;;;;;;;7.22;5.38;;;;;;;;;;5075539;28;20205;-66
2021/04/28 06:10:38;;;;;;;7.45;6.60;;;;;;;;;;5075523;28;20207;-65
2021/04/28 06:13:04;;;;;;;8.50;6.07;;;;;;;;;;5075411;28;20198;-65
2021/04/28 06:15:32;;;;;;;7.43;5.15;;;;;;;;;;5075594;28;20555;-65
2021/04/28 06:17:59;;;;;;;7.43;5.50;;;;;;;;;;5074907;28;20215;-65
2021/04/28 06:20:25;;;;;;;6.43;5.65;;;;;;;;;;5075067;28;20293;-67
2021/04/28 06:22:52;;;;;;;6.30;5.50;;;;;;;;;;5075012;28;20622;-65
2021/04/28 06:25:19;;;;;;;8.00;5.82;;;;;;;;;;5075283;28;20200;-65
2021/04/28 06:27:45;;;;;;;8.63;6.45;;;;;;;;;;5074808;28;20202;-65
2021/04/28 06:30:12;;;;;;;6.68;5.97;;;;;;;;;;5075759;28;20285;-65
2021/04/28 06:32:40;;;;;;;10.52;5.20;;;;;;;;;;5075289;28;20199;-66
2021/04/28 06:35:08;;;;;;;6.78;6.10;;;;;;;;;;5074837;28;20195;-65
2021/04/28 06:37:35;;;;;;;7.20;4.70;;;;;;;;;;5074687;28;20260;-65
2021/04/28 06:40:01;;;;;;;9.70;5.10;;;;;;;;;;5067523;28;20285;-65
2021/04/28 06:42:28;;;;;;;6.72;6.03;;;;;;;;;;5060049;28;20690;-67
2021/04/28 06:44:55;;;;;;;7.50;6.07;;;;;;;;;;5064448;28;20607;-67
2021/04/28 06:47:22;;;;;;;9.70;5.90;;;;;;;;;;5075059;28;20212;-67
2021/04/28 06:49:51;;;;;;;7.28;6.20;;;;;;;;;;5073363;28;20690;-67
2021/04/28 06:52:18;;;;;;;9.13;5.90;;;;;;;;;;5074844;28;20241;-66
2021/04/28 06:54:44;;;;;;;7.45;5.70;;;;;;;;;;5074665;28;20347;-67
2021/04/28 06:57:11;;;;;;;15.75;7.05;;;;;;;;;;5074270;28;20745;-66
2021/04/28 06:59:38;;;;;;;7.10;5.63;;;;;;;;;;5074725;28;20243;-66
2021/04/28 07:02:05;;;;;;;7.78;6.57;;;;;;;;;;5074861;28;20674;-67
2021/04/28 07:04:31;;;;;;;6.82;5.70;;;;;;;;;;5074480;28;20199;-67
2021/04/28 07:06:59;;;;;;;6.43;5.80;;;;;;;;;;5074141;28;20298;-67
2021/04/28 07:09:26;;;;;;;8.80;6.35;;;;;;;;;;5066936;28;20192;-67
2021/04/28 07:11:53;;;;;;;9.40;5.75;;;;;;;;;;5054045;28;20242;-67
2021/04/28 07:14:19;;;;;;;7.60;5.85;;;;;;;;;;5054242;28;20197;-67
2021/04/28 07:16:46;;;;;;;7.00;6.05;;;;;;;;;;5054154;28;20224;-67
2021/04/28 07:19:13;;;;;;;6.35;5.40;;;;;;;;;;5053769;28;20199;-66
2021/04/28 07:21:40;;;;;;;11.70;6.18;;;;;;;;;;5053826;28;20192;-66
2021/04/28 07:24:08;;;;;;;8.13;6.82;;;;;;;;;;5053760;28;20203;-65
2021/04/28 07:26:35;;;;;;;11.85;7.05;;;;;;;;;;5053730;28;20248;-65
2021/04/28 07:29:02;;;;;;;9.88;6.68;;;;;;;;;;5054442;28;20216;-66
2021/04/28 07:31:30;;;;;;;8.88;6.05;;;;;;;;;;5055335;28;20250;-66
2021/04/28 07:33:57;;;;;;;12.30;6.03;;;;;;;;;;5055705;28;20196;-66
2021/04/28 07:36:24;;;;;;;8.70;7.30;;;;;;;;;;5054337;28;20287;-66
2021/04/28 07:38:50;;;;;;;8.15;6.13;;;;;;;;;;5053283;28;20298;-65
2021/04/28 07:41:18;;;;;;;8.23;7.43;;;;;;;;;;5054115;28;20223;-66
2021/04/28 07:43:45;;;;;;;6.85;6.10;;;;;;;;;;5054005;28;20387;-66
2021/04/28 07:46:11;;;;;;;10.00;7.93;;;;;;;;;;5054445;28;20250;-67
2021/04/28 07:48:38;;;;;;;9.60;7.90;;;;;;;;;;5053406;28;20253;-68
2021/04/28 07:51:05;;;;;;;7.07;6.47;;;;;;;;;;5054256;28;20193;-67
2021/04/28 07:53:32;;;;;;;9.80;6.82;;;;;;;;;;5053892;28;20288;-67
2021/04/28 07:55:59;;;;;;;7.75;6.88;;;;;;;;;;5053563;28;20192;-67
2021/04/28 07:58:26;;;;;;;7.05;6.07;;;;;;;;;;5052949;28;20225;-68
2021/04/28 08:00:53;;;;;;;11.55;7.00;;;;;;;;;;5056748;28;20284;-67
2021/04/28 08:03:20;;;;;;;7.30;6.60;;;;;;;;;;5060257;28;20284;-67
2021/04/28 08:05:46;;;;;;;6.90;6.25;;;;;;;;;;5060769;28;20290;-67
2021/04/28 08:08:13;;;;;;;8.13;6.97;;;;;;;;;;5073956;28;20291;-67
2021/04/28 08:10:40;;;;;;;8.48;7.10;;;;;;;;;;5073226;28;20193;-67
2021/04/28 08:13:09;;;;;;;11.75;7.05;;;;;;;;;;5073152;28;20237;-67
2021/04/28 08:15:37;;;;;;;7.38;6.70;;;;;;;;;;5073181;28;20203;-67
2021/04/28 08:18:04;;;;;;;11.02;6.95;;;;;;;;;;5073013;28;20230;-67
2021/04/28 08:20:31;;;;;;;11.05;7.30;;;;;;;;;;5073160;28;20274;-67
2021/04/28 08:22:58;;;;;;;16.52;6.65;;;;;;;;;;5072932;28;20299;-67
2021/04/28 08:25:25;;;;;;;8.75;7.85;;;;;;;;;;5072796;28;20835;-67
2021/04/28 08:27:51;;;;;;;8.57;6.68;;;;;;;;;;5073085;28;20288;-67
2021/04/28 08:30:19;;;;;;;7.65;6.22;;;;;;;;;;5067073;28;20209;-67
2021/04/28 08:32:46;;;;;;;8.88;6.68;;;;;;;;;;5053005;28;20281;-68
2021/04/28 08:35:14;;;;;;;13.20;8.00;;;;;;;;;;5052560;28;20191;-67
2021/04/28 08:37:42;;;;;;;11.43;7.23;;;;;;;;;;5052418;28;20560;-68
2021/04/28 08:40:09;;;;;;;7.83;7.03;;;;;;;;;;5052783;28;20925;-68
2021/04/28 08:42:36;;;;;;;15.70;7.73;;;;;;;;;;5052731;28;20455;-67
2021/04/28 08:45:03;;;;;;;7.83;7.13;;;;;;;;;;5052634;28;20437;-66
2021/04/28 08:47:29;;;;;;;8.27;7.30;;;;;;;;;;5052666;28;20451;-67
2021/04/28 08:49:57;;;;;;;7.73;7.03;;;;;;;;;;5052191;28;20486;-66
2021/04/28 08:52:24;;;;;;;10.13;7.03;;;;;;;;;;5052427;28;21008;-68
2021/04/28 08:54:50;;;;;;;11.10;7.63;;;;;;;;;;5052755;28;20446;-67
2021/04/28 08:57:19;;;;;;;8.17;7.37;;;;;;;;;;5052832;28;20868;-67
2021/04/28 08:59:46;;;;;;;9.97;7.10;;;;;;;;;;5052744;28;20455;-66
2021/04/28 09:02:13;;;;;;;9.43;7.67;;;;;;;;;;5052432;28;20480;-66
2021/04/28 09:04:40;;;;;;;15.50;8.20;;;;;;;;;;5051883;28;20453;-66
2021/04/28 09:07:08;;;;;;;21.10;8.30;;;;;;;;;;5051649;28;20499;-66
2021/04/28 09:09:35;;;;;;;47.20;10.37;;;;;;;;;;5051679;28;20444;-67
2021/04/28 09:12:02;;;;;;;12.20;7.57;;;;;;;;;;5051570;28;20464;-66
2021/04/28 09:14:31;;;;;;;45.10;11.20;;;;;;;;;;5055129;28;20453;-66
2021/04/28 09:17:02;;;;;;;12.87;8.10;;;;;;;;;;5055527;28;20625;-66
2021/04/28 09:19:31;;;;;;;15.00;8.50;;;;;;;;;;5056521;28;20524;-66
2021/04/28 09:22:01;;;;;;;12.50;8.10;;;;;;;;;;5055497;28;20445;-65
2021/04/28 09:24:30;;;;;;;9.70;7.20;;;;;;;;;;5056134;28;20494;-65
2021/04/28 09:26:58;;;;;;;13.10;8.10;;;;;;;;;;5055391;28;20588;-66
2021/04/28 09:29:25;;;;;;;11.43;8.33;;;;;;;;;;5055526;28;20486;-66
2021/04/28 09:31:59;;;;;;;10.07;8.90;;;;;;;;;;5055898;28;20532;-66
2021/04/28 09:34:27;;;;;;;9.07;8.00;;;;;;;;;;5056200;28;20426;-66
2021/04/28 09:37:01;;;;;;;9.97;8.97;;;;;;;;;;5055907;28;20477;-66
2021/04/28 09:39:28;;;;;;;10.00;8.70;;;;;;;;;;5055674;28;20451;-65
2021/04/28 09:41:57;;;;;;;14.40;9.17;;;;;;;;;;5056010;28;20441;-65
2021/04/28 09:44:28;;;;;;;12.27;8.60;;;;;;;;;;5055625;28;20470;-66
2021/04/28 09:46:56;;;;;;;11.73;8.17;;;;;;;;;;5056736;28;20429;-65
2021/04/28 09:49:23;;;;;;;9.27;8.30;;;;;;;;;;5055575;28;20568;-66
2021/04/28 09:51:54;;;;;;;9.30;8.33;;;;;;;;;;5055500;28;20575;-65
2021/04/28 09:54:28;;;;;;;10.77;8.23;;;;;;;;;;5055523;28;20517;-65
2021/04/28 09:56:56;;;;;;;11.23;8.97;;;;;;;;;;5055940;28;20476;-65
2021/04/28 09:59:23;;;;;;;12.53;8.53;;;;;;;;;;5055590;28;20850;-65
2021/04/28 10:01:58;;;;;;;10.43;9.23;;;;;;;;;;5055566;28;20853;-65
2021/04/28 10:04:27;;;;;;;13.30;9.90;;;;;;;;;;5055792;28;20447;-66
2021/04/28 10:06:54;;;;;;;10.30;8.50;;;;;;;;;;5055702;28;20867;-66
2021/04/28 10:09:29;;;;;;;11.50;8.73;;;;;;;;;;5054917;28;20446;-67
2021/04/28 10:11:57;;;;;;;10.60;8.47;;;;;;;;;;5054898;28;20929;-66
2021/04/28 10:14:24;;;;;;;15.27;7.97;;;;;;;;;;5055315;28;20525;-65
2021/04/28 10:16:52;;;;;;;11.13;8.80;;;;;;;;;;5054963;28;20576;-65
2021/04/28 10:19:19;;;;;;;10.00;8.90;;;;;;;;;;5054948;28;20891;-67
2021/04/28 10:21:46;;;;;;;10.33;9.30;;;;;;;;;;5054891;28;20473;-66
2021/04/28 10:24:14;;;;;;;10.70;9.03;;;;;;;;;;5054885;28;20504;-65
2021/04/28 10:26:41;;;;;;;9.60;8.20;;;;;;;;;;5054798;28;20481;-66
2021/04/28 10:29:08;;;;;;;10.00;8.20;;;;;;;;;;5055031;28;20472;-66
2021/04/28 10:31:37;;;;;;;9.23;8.20;;;;;;;;;;5055019;28;20503;-66
2021/04/28 10:34:05;;;;;;;10.13;8.47;;;;;;;;;;5054745;28;20442;-66
2021/04/28 10:36:32;;;;;;;11.47;9.00;;;;;;;;;;5054680;28;20477;-66
2021/04/28 10:38:59;;;;;;;10.53;8.50;;;;;;;;;;5055051;28;20516;-66
2021/04/28 10:41:36;;;;;;;10.53;8.50;;;;;;;;;;5054816;28;20974;-66
2021/04/28 10:44:03;;;;;;;8.77;7.97;;;;;;;;;;5054716;28;20449;-66
2021/04/28 10:46:31;;;;;;;13.70;9.50;;;;;;;;;;5054368;28;20978;-66
2021/04/28 10:48:57;;;;;;;8.23;7.43;;;;;;;;;;5054665;28;20465;-66
2021/04/28 10:51:34;;;;;;;11.70;8.70;;;;;;;;;;5055262;28;20491;-67
2021/04/28 10:54:15;;;;;;;14.73;9.63;;;;;;;;;;5055242;28;20839;-66
2021/04/28 10:56:57;;;;;;;15.23;9.10;;;;;;;;;;5054254;28;20973;-67
2021/04/28 10:59:31;;;;;;;9.60;8.60;;;;;;;;;;5054423;28;20430;-67
2021/04/28 11:02:06;;;;;;;9.60;8.50;;;;;;;;;;5054863;28;20422;-67
2021/04/28 11:04:33;;;;;;;10.60;8.00;;;;;;;;;;5054113;28;20431;-67
2021/04/28 11:07:00;;;;;;;10.93;8.83;;;;;;;;;;5059124;28;20441;-68
2021/04/28 11:09:27;;;;;;;8.47;7.63;;;;;;;;;;5073557;28;20487;-66
2021/04/28 11:11:55;;;;;;;8.27;7.40;;;;;;;;;;5073779;28;20449;-68
2021/04/28 11:14:37;;;;;;;14.07;6.80;;;;;;;;;;5074197;28;20466;-67
2021/04/28 11:17:22;;;;;;;12.00;7.40;;;;;;;;;;5074192;28;20445;-67
2021/04/28 11:19:51;;;;;;;9.50;7.90;;;;;;;;;;5073642;28;20425;-67
2021/04/28 11:22:19;;;;;;;9.83;8.27;;;;;;;;;;5073701;28;20444;-67
2021/04/28 11:25:08;;;;;;;11.30;9.10;;;;;;;;;;5073498;28;20447;-67
2021/04/28 11:27:45;;;;;;;9.40;7.40;;;;;;;;;;5074108;28;20461;-67
2021/04/28 11:30:21;;;;;;;10.37;6.73;;;;;;;;;;5073991;28;20456;-67
2021/04/28 11:33:02;;;;;;;7.87;7.07;;;;;;;;;;5073767;28;20456;-67
2021/04/28 11:35:30;;;;;;;13.37;9.20;;;;;;;;;;5067430;28;20489;-67
2021/04/28 11:38:04;;;;;;;11.30;7.83;;;;;;;;;;5053098;28;20562;-67
2021/04/28 11:40:31;;;;;;;9.03;7.60;;;;;;;;;;5053145;28;20442;-68
2021/04/28 11:42:59;;;;;;;8.20;7.40;;;;;;;;;;5053577;28;20468;-67
2021/04/28 11:45:32;;;;;;;8.33;7.50;;;;;;;;;;5053820;28;20442;-68
2021/04/28 11:47:58;;;;;;;10.80;7.90;;;;;;;;;;5053522;28;20430;-67
2021/04/28 11:50:25;;;;;;;9.00;8.10;;;;;;;;;;5053786;28;20568;-67
2021/04/28 11:52:53;;;;;;;9.60;8.60;;;;;;;;;;5053434;28;20433;-67
2021/04/28 11:55:22;;;;;;;10.40;8.83;;;;;;;;;;5053331;28;20444;-67
2021/04/28 11:57:49;;;;;;;9.40;8.60;;;;;;;;;;5053226;28;20543;-67
2021/04/28 12:00:16;;;;;;;15.33;9.90;;;;;;;;;;5052734;28;20488;-67
2021/04/28 12:02:43;;;;;;;11.23;8.20;;;;;;;;;;5053468;28;20450;-66
2021/04/28 12:05:10;;;;;;;10.30;7.83;;;;;;;;;;5052984;28;20858;-67
2021/04/28 12:07:37;;;;;;;8.80;7.70;;;;;;;;;;5052676;28;20955;-67
2021/04/28 12:10:11;;;;;;;8.73;7.83;;;;;;;;;;5052789;28;20532;-67
2021/04/28 12:12:40;;;;;;;8.27;7.43;;;;;;;;;;5053264;28;20471;-67
2021/04/28 12:15:14;;;;;;;9.30;8.40;;;;;;;;;;5053243;28;20806;-67
2021/04/28 12:17:42;;;;;;;8.87;7.97;;;;;;;;;;5052905;28;20520;-67
2021/04/28 12:20:10;;;;;;;8.73;7.87;;;;;;;;;;5052850;28;20488;-67
2021/04/28 12:22:37;;;;;;;10.30;7.50;;;;;;;;;;5052683;28;20495;-67
2021/04/28 12:25:06;;;;;;;10.60;8.20;;;;;;;;;;5053125;28;20842;-67
2021/04/28 12:27:33;;;;;;;10.40;7.63;;;;;;;;;;5053019;28;20445;-67
2021/04/28 12:30:01;;;;;;;10.40;8.87;;;;;;;;;;5053312;28;20927;-67
2021/04/28 12:32:29;;;;;;;10.27;7.43;;;;;;;;;;5053156;28;20445;-68
2021/04/28 12:35:07;;;;;;;9.60;7.20;;;;;;;;;;5053756;28;20961;-67
2021/04/28 12:37:34;;;;;;;12.10;6.43;;;;;;;;;;5052942;28;20464;-68
2021/04/28 12:40:02;;;;;;;8.30;6.57;;;;;;;;;;5052608;28;20437;-68
2021/04/28 12:42:31;;;;;;;6.90;6.23;;;;;;;;;;5053336;28;20521;-67
2021/04/28 12:44:59;;;;;;;8.60;6.80;;;;;;;;;;5052790;28;20499;-68
2021/04/28 12:47:27;;;;;;;6.77;6.10;;;;;;;;;;5054871;28;20805;-68
2021/04/28 12:50:11;;;;;;;6.23;5.63;;;;;;;;;;5056581;28;20615;-67
2021/04/28 12:52:38;;;;;;;6.80;5.87;;;;;;;;;;5056519;28;20433;-68
2021/04/28 12:55:28;;;;;;;6.60;5.80;;;;;;;;;;5056628;28;20535;-68
2021/04/28 12:57:57;;;;;;;7.10;6.07;;;;;;;;;;5056767;28;20468;-67
2021/04/28 13:00:24;;;;;;;6.07;5.30;;;;;;;;;;5056956;28;20499;-67
2021/04/28 13:03:04;;;;;;;7.70;5.60;;;;;;;;;;5056402;28;20805;-68
2021/04/28 13:05:31;;;;;;;5.73;4.70;;;;;;;;;;5056116;28;20473;-67
2021/04/28 13:08:13;;;;;;;5.43;4.37;;;;;;;;;;5056403;28;20808;-67
2021/04/28 13:10:39;;;;;;;6.80;5.50;;;;;;;;;;5056731;28;20445;-67
2021/04/28 13:13:27;;;;;;;5.97;4.80;;;;;;;;;;5056010;28;20560;-67
2021/04/28 13:15:54;;;;;;;5.80;5.30;;;;;;;;;;5056000;28;20426;-67
2021/04/28 13:18:21;;;;;;;6.10;5.60;;;;;;;;;;5055827;28;20569;-67
2021/04/28 13:20:47;;;;;;;6.33;5.83;;;;;;;;;;5055937;28;20483;-67
2021/04/28 13:23:15;;;;;;;6.10;5.50;;;;;;;;;;5055673;28;20446;-67
2021/04/28 13:25:48;;;;;;;7.43;6.30;;;;;;;;;;5055717;28;20547;-67
2021/04/28 13:28:29;;;;;;;7.10;5.23;;;;;;;;;;5055602;28;20446;-67
2021/04/28 13:31:11;;;;;;;7.27;5.53;;;;;;;;;;5055620;28;20446;-67
2021/04/28 13:33:38;;;;;;;8.80;5.93;;;;;;;;;;5055670;28;20484;-67
2021/04/28 13:36:05;;;;;;;6.67;6.07;;;;;;;;;;5055400;28;20483;-65
2021/04/28 13:38:46;;;;;;;8.40;6.07;;;;;;;;;;5055682;28;20562;-67
2021/04/28 13:41:13;;;;;;;5.93;5.33;;;;;;;;;;5055806;28;20567;-68
2021/04/28 13:43:43;;;;;;;5.90;4.87;;;;;;;;;;5055138;28;20498;-66
2021/04/28 13:46:11;;;;;;;8.60;5.00;;;;;;;;;;5055570;28;20467;-66
2021/04/28 13:48:39;;;;;;;6.20;4.83;;;;;;;;;;5055027;28;20473;-65
2021/04/28 13:51:05;;;;;;;5.53;5.00;;;;;;;;;;5055525;28;20441;-66
2021/04/28 13:53:32;;;;;;;6.53;5.30;;;;;;;;;;5055494;28;20429;-66
2021/04/28 13:55:59;;;;;;;4.73;4.20;;;;;;;;;;5055809;28;20801;-65
2021/04/28 13:58:26;;;;;;;6.60;5.80;;;;;;;;;;5054079;28;20484;-65
2021/04/28 14:00:53;;;;;;;6.73;5.90;;;;;;;;;;5055235;28;20530;-65
2021/04/28 14:03:20;;;;;;;5.67;5.13;;;;;;;;;;5054881;28;20524;-65
2021/04/28 14:05:47;;;;;;;6.70;5.43;;;;;;;;;;5055005;28;20804;-65
2021/04/28 14:08:15;;;;;;;5.40;4.90;;;;;;;;;;5070697;28;20505;-65
2021/04/28 14:10:41;;;;;;;5.97;5.37;;;;;;;;;;5055199;28;20477;-65
2021/04/28 14:13:08;;;;;;;6.33;5.73;;;;;;;;;;5055658;28;20446;-65
2021/04/28 14:15:35;;;;;;;5.93;5.43;;;;;;;;;;5055093;28;20444;-66
2021/04/28 14:18:02;;;;;;;7.67;6.10;;;;;;;;;;5055206;28;20530;-64
2021/04/28 14:20:29;;;;;;;5.93;5.43;;;;;;;;;;5055143;28;20477;-65
2021/04/28 14:22:56;;;;;;;8.27;6.47;;;;;;;;;;5054953;28;20448;-66
2021/04/28 14:25:23;;;;;;;6.00;5.10;;;;;;;;;;5054665;28;20441;-65
2021/04/28 14:27:50;;;;;;;5.80;5.20;;;;;;;;;;5054656;28;20473;-65
2021/04/28 14:30:23;;;;;;;6.47;5.83;;;;;;;;;;5054763;28;20947;-65
2021/04/28 14:32:50;;;;;;;16.13;13.23;;;;;;;;;;5055246;28;20899;-66
2021/04/28 14:35:19;;;;;;;7.20;6.50;;;;;;;;;;5054389;28;20527;-66
2021/04/28 14:37:46;;;;;;;7.47;6.77;;;;;;;;;;5054733;28;21001;-65
2021/04/28 14:40:13;;;;;;;9.03;7.10;;;;;;;;;;5054505;28;20764;-66
2021/04/28 14:42:40;;;;;;;7.90;7.13;;;;;;;;;;5054088;28;20464;-66
2021/04/28 14:45:08;;;;;;;6.73;5.97;;;;;;;;;;5054109;28;20982;-66